Hyattville, Wyoming
Current Conditions -  °F | °C
As of 6:53 PM on Thursday 20 Nov 2014 (Local Time) from KWRL Reporting Station
Broken Clouds Broken Clouds  
Wind Chill: 20°   Ceiling: 11000
Heat Index: 20°   Visibility: 10mi
Dew Point: 15°   Wind: 0mph
Humidity: 81%   Direction: NA
Pressure: 29.92"   Gusts: NA
Location:  44.25°N, 107.6°W
Report Text: KWRL 210153Z AUTO 00000KT 10SM BKN110 M07/M09 A2992 RMK AO2 SLP203 T10671094
Loading
Personal Weather Stations






























Interactive Weather Map New forecast layout! Learn more

10-Day Weather Forecast

Advertisements
Track Severe Weather on mobile